Flight Track Log - Related Links

Times and Time Zones

All times are in EDT time to prevent confusion due to time zone crossing. See the SWA655 flight status page for this flight to view local times or setup timezone preferences in your user account.

Time Position Orientation Groundspeed Altitude Reporting Facility
EDT Latitude Longitude Course Direction KTS MPH feet Rate Location/Type
Sat 04:06:48 PM 42.9667 -87.8500 60° Northeast 197 227 2,500  Level KMKE
Sat 04:07:34 PM 42.9956 -87.8725 330° Northwest 223 257 4,000 2,389 Climbing Chicago Center
Sat 04:08:36 PM 42.9922 -87.9892 268° West 263 303 6,800 2,758 Climbing Chicago Center
Sat 04:09:38 PM 42.9881 -88.0953 267° West 277 319 9,700 2,049 Climbing Chicago Center
Sat 04:10:39 PM 42.9847 -88.2103 268° West 304 350 11,000 1,756 Climbing Chicago Center
Sat 04:11:41 PM 42.9792 -88.3472 267° West 352 405 13,300 2,371 Climbing Chicago Center
Sat 04:12:43 PM 42.9736 -88.4875 267° West 363 418 15,900 2,468 Climbing Chicago Center
Sat 04:13:45 PM 42.9669 -88.6317 266° West 376 433 18,400 2,341 Climbing Chicago Center
Sat 04:14:46 PM 42.9611 -88.7806 267° West 388 447 20,700 2,195 Climbing Chicago Center
Sat 04:15:48 PM 42.9542 -88.9344 267° West 400 460 22,900 2,177 Climbing Chicago Center
Sat 04:16:50 PM 42.9461 -89.1183 267° West 412 474 25,200 1,984 Climbing Chicago Center
Sat 04:17:52 PM 42.9381 -89.2775 266° West 418 481 27,000 1,742 Climbing Chicago Center
Sat 04:18:54 PM 42.9317 -89.4386 267° West 422 486 28,800 1,854 Climbing Chicago Center
Sat 04:19:55 PM 42.9281 -89.5992 268° West 421 484 30,800 1,610 Climbing Chicago Center
Sat 04:20:57 PM 42.9253 -89.7600 269° West 422 486 32,100 1,306 Climbing Chicago Center
Sat 04:21:59 PM 42.9222 -89.9283 269° West 428 493 33,500 1,403 Climbing Chicago Center
Sat 04:23:01 PM 42.9203 -90.0931 269° West 435 501 35,000 1,220 Climbing Chicago Center
Sat 04:24:02 PM 42.9169 -90.2497 268° West 423 487 36,000 488 Climbing Chicago Center
Sat 04:25:04 PM 42.9150 -90.4047 269° West 415 478 36,000  Level Chicago Center
Sat 04:26:06 PM 42.9078 -90.5906 267° West 413 475 36,000  Level Chicago Center
Sat 04:27:08 PM 42.8842 -90.7444 258° West 417 480 36,000  Level Chicago Center
Sat 04:28:09 PM 42.8633 -90.8994 260° West 420 483 36,000  Level Chicago Center
Sat 04:29:11 PM 42.8425 -91.0531 260° West 418 481 36,000  Level Chicago Center
Sat 04:30:25 PM 42.8169 -91.2403 260° West 421 484 36,000  Level Chicago Center
Sat 04:31:27 PM 42.7908 -91.4247 259° West 419 482 36,000  Level Chicago Center
Sat 04:32:29 PM 42.7667 -91.5767 258° West 422 486 36,000  Level Chicago Center
Sat 04:33:30 PM 42.7453 -91.7306 259° West 423 487 36,000  Level Chicago Center
Sat 04:34:32 PM 42.7211 -91.9111 260° West 430 495 36,000  Level Chicago Center
Sat 04:35:34 PM 42.6986 -92.0664 259° West 425 489 36,000 683 Level Chicago Center
Sat 04:36:35 PM 42.6761 -92.2211 259° West 422 486 37,400 976 Climbing Chicago Center
Sat 04:37:37 PM 42.6539 -92.3717 259° West 413 475 38,000 290 Climbing Chicago Center
Sat 04:38:39 PM 42.6319 -92.5214 259° West 408 470 38,000  Level Chicago Center
Sat 04:39:40 PM 42.6042 -92.7008 258° West 408 470 38,000  Level Chicago Center
Sat 04:40:42 PM 42.5817 -92.8519 259° West 411 473 38,000  Level Chicago Center
Sat 04:41:44 PM 42.5572 -93.0019 258° West 412 474 38,000  Level Chicago Center
Sat 04:42:45 PM 42.5358 -93.1553 259° West 414 476 38,000  Level Minneapolis Center
Sat 04:43:47 PM 42.5111 -93.3094 258° West 419 482 38,000  Level Minneapolis Center
Sat 04:44:49 PM 42.4878 -93.4625 258° West 421 484 38,000  Level Minneapolis Center
Sat 04:45:51 PM 42.4592 -93.6458 258° West 419 482 38,000  Level Minneapolis Center
Sat 04:46:53 PM 42.4342 -93.7994 258° West 423 487 38,000  Level Minneapolis Center
Sat 04:47:54 PM 42.4083 -93.9514 257° West 420 483 38,000  Level Minneapolis Center
Sat 04:48:56 PM 42.3833 -94.1028 257° West 417 480 38,000  Level Minneapolis Center
Sat 04:49:58 PM 42.3556 -94.2772 258° West 415 478 38,000  Level Minneapolis Center
Sat 04:51:12 PM 42.3306 -94.4283 257° West 413 475 38,000  Level Minneapolis Center
Sat 04:52:14 PM 42.3000 -94.6072 257° West 410 472 38,000  Level Minneapolis Center
Sat 04:53:16 PM 42.2739 -94.7561 257° West 407 468 38,000  Level Minneapolis Center
Sat 04:54:17 PM 42.2492 -94.9069 258° West 410 472 38,000  Level Minneapolis Center
Sat 04:55:19 PM 42.2225 -95.0525 256° West 403 464 38,000  Level Minneapolis Center
Sat 04:56:33 PM 42.1917 -95.2333 257° West 410 472 38,000  Level Minneapolis Center
Sat 04:57:35 PM 42.1597 -95.4136 257° West 413 475 38,000  Level Minneapolis Center
Sat 04:58:37 PM 42.1336 -95.5628 257° West 411 473 38,000  Level Minneapolis Center
Sat 04:59:38 PM 42.1064 -95.7111 256° West 409 471 38,000  Level Minneapolis Center
Sat 05:00:40 PM 42.0797 -95.8614 257° West 414 476 38,000  Level Minneapolis Center
Sat 05:01:42 PM 42.0522 -96.0089 256° West 409 471 38,000  Level Minneapolis Center
Sat 05:02:43 PM 42.0308 -96.1278 256° West 409 471 38,000  Level Minneapolis Center
Sat 05:03:45 PM 41.9919 -96.3350 256° West 411 473 38,000  Level Minneapolis Center
Sat 05:04:46 PM 41.9642 -96.4836 256° West 411 473 38,000  Level Minneapolis Center
Sat 05:05:48 PM 41.9372 -96.6283 256° West 407 468 38,000  Level Minneapolis Center
Sat 05:06:50 PM 41.9094 -96.7753 256° West 407 468 38,000  Level Minneapolis Center
Sat 05:07:51 PM 41.8808 -96.9214 255° West 407 468 38,000  Level Minneapolis Center
Sat 05:08:52 PM 41.8589 -97.0372 256° West 405 466 38,000  Level Minneapolis Center
Sat 05:09:54 PM 41.8258 -97.2139 256° West 408 470 38,000  Level Minneapolis Center
Sat 05:10:55 PM 41.7903 -97.3892 255° West 408 470 38,000  Level Minneapolis Center
Sat 05:12:09 PM 41.7619 -97.5353 255° West 407 468 38,000  Level Minneapolis Center
Sat 05:13:11 PM 41.7258 -97.7100 255° West 406 467 38,000  Level Minneapolis Center
Sat 05:14:12 PM 41.6969 -97.8542 255° West 404 465 38,000  Level Minneapolis Center
Sat 05:15:14 PM 41.6694 -97.9972 256° West 400 460 38,000  Level Minneapolis Center
Sat 05:16:15 PM 41.6386 -98.1444 254° West 400 460 38,000  Level Minneapolis Center
Sat 05:17:16 PM 41.6100 -98.2872 255° West 400 460 38,000  Level Minneapolis Center
Sat 05:18:18 PM 41.5797 -98.4292 254° West 399 459 38,000  Level Minneapolis Center
Sat 05:19:19 PM 41.5456 -98.5981 255° West 401 461 38,000  Level Minneapolis Center
Sat 05:20:21 PM 41.5147 -98.7403 254° West 401 461 38,000  Level Minneapolis Center
Sat 05:21:22 PM 41.4847 -98.8839 254° West 402 463 38,000  Level Minneapolis Center
Sat 05:22:24 PM 41.4539 -99.0264 254° West 401 461 38,000  Level Minneapolis Center
Sat 05:23:25 PM 41.4231 -99.1689 254° West 401 461 38,000  Level Minneapolis Center
Sat 05:24:27 PM 41.3953 -99.3100 255° West 402 463 38,000  Level Minneapolis Center
Sat 05:25:28 PM 41.3642 -99.4514 254° West 401 461 38,000  Level Minneapolis Center
Sat 05:26:30 PM 41.3269 -99.6219 254° West 402 463 38,000  Level Minneapolis Center
Sat 05:27:31 PM 41.2964 -99.7642 254° West 401 461 38,000  Level Minneapolis Center
Sat 05:28:32 PM 41.2647 -99.9064 254° West 402 463 38,000  Level Minneapolis Center
Sat 05:29:34 PM 41.2328 -100.0494 254° West 404 465 38,000  Level Minneapolis Center
Sat 05:30:35 PM 41.2011 -100.1922 254° West 404 465 38,000  Level Minneapolis Center
Sat 05:31:37 PM 41.1686 -100.3361 253° West 405 466 38,000  Level Minneapolis Center
Sat 05:32:38 PM 41.1356 -100.4789 253° West 406 467 38,000  Level Minneapolis Center
Sat 05:33:59 PM 41.0900 -100.6792 253° West 404 465 38,000  Level Denver Center
Sat 05:35:01 PM 41.0539 -100.8378 253° West 408 470 38,000  Level Denver Center
Sat 05:36:02 PM 41.0219 -100.9717 252° West 405 466 38,000  Level Denver Center
Sat 05:37:04 PM 40.9842 -101.1278 252° West 403 464 38,000  Level Denver Center
Sat 05:38:05 PM 40.9528 -101.2633 253° West 404 465 38,000  Level Denver Center
Sat 05:39:07 PM 40.9200 -101.3997 252° West 409 471 38,000  Level Denver Center
Sat 05:40:08 PM 40.8828 -101.5614 253° West 412 474 38,000  Level Denver Center
Sat 05:41:10 PM 40.8492 -101.6994 252° West 414 476 38,000  Level Denver Center
Sat 05:42:11 PM 40.8108 -101.8592 252° West 411 473 38,000  Level Denver Center
Sat 05:43:12 PM 40.7769 -101.9975 252° West 413 475 38,000  Level Denver Center
Sat 05:44:14 PM 40.7433 -102.1356 252° West 414 476 38,000  Level Denver Center
Sat 05:45:15 PM 40.7047 -102.2950 252° West 409 471 38,000  Level Denver Center
Sat 05:46:17 PM 40.6692 -102.4311 251° West 411 473 38,000  Level Denver Center
Sat 05:47:18 PM 40.6414 -102.5439 252° West 406 467 38,000  Level Denver Center
Sat 05:48:20 PM 40.5969 -102.7200 252° West 407 468 38,000  Level Denver Center
Sat 05:49:22 PM 40.5619 -102.8614 252° West 407 468 38,000  Level Denver Center
Sat 05:50:23 PM 40.5261 -103.0014 251° West 405 466 38,000  Level Denver Center
Sat 05:51:24 PM 40.4900 -103.1408 251° West 405 466 38,000  Level Denver Center
Sat 05:52:26 PM 40.4475 -103.3092 252° West 405 466 38,000  Level Denver Center
Sat 05:53:27 PM 40.4153 -103.4508 253° West 407 468 38,000  Level Denver Center
Sat 05:54:29 PM 40.3950 -103.5939 260° West 402 463 38,000  Level Denver Center
Sat 05:55:31 PM 40.3731 -103.7394 259° West 411 473 38,000  Level Denver Center
Sat 05:56:32 PM 40.3475 -103.8814 257° West 402 463 38,000  Level Denver Center
Sat 05:57:46 PM 40.3078 -104.0200 249° West 405 466 38,000  Level Denver Center
Sat 05:58:48 PM 40.2628 -104.1847 250° West 401 461 38,000  Level Denver Center
Sat 05:59:49 PM 40.2178 -104.3519 251° West 406 467 38,000  Level Denver Center
Sat 06:00:51 PM 40.1806 -104.4914 251° West 409 471 38,000  Level Denver Center
Sat 06:01:52 PM 40.1417 -104.6325 250° West 415 478 38,000  Level Denver Center
Sat 06:02:54 PM 40.1036 -104.7711 250° West 410 472 38,000  Level Denver Center
Sat 06:03:55 PM 40.0644 -104.9114 250° West 411 473 38,000  Level Denver Center
Sat 06:04:57 PM 40.0250 -105.0472 249° West 404 465 38,000  Level Denver Center
Sat 06:05:58 PM 39.9786 -105.2122 250° West 404 465 38,000  Level Denver Center
Sat 06:07:00 PM 39.9403 -105.3500 250° West 407 468 38,000  Level Denver Center
Sat 06:08:01 PM 39.8992 -105.4886 249° West 410 472 38,000  Level Denver Center
Sat 06:09:03 PM 39.8597 -105.6281 250° West 414 476 38,000  Level Denver Center
Sat 06:10:04 PM 39.8192 -105.7672 249° West 413 475 38,000  Level Denver Center
Sat 06:11:06 PM 39.7803 -105.9033 250° West 404 465 38,000  Level Denver Center
Sat 06:12:07 PM 39.7392 -106.0425 249° West 412 474 38,000  Level Denver Center
Sat 06:13:09 PM 39.6908 -106.2108 250° West 415 478 38,000 146 Level Denver Center
Sat 06:14:10 PM 39.6558 -106.3283 249° West 413 475 38,300 444 Climbing Denver Center
Sat 06:15:24 PM 39.6139 -106.4697 249° West 418 481 39,000 311 Climbing Denver Center
Sat 06:16:25 PM 39.5583 -106.6564 249° West 416 479 39,000  Level Denver Center
Sat 06:17:27 PM 39.5119 -106.8142 249° West 420 483 39,000  Level Denver Center
Sat 06:18:28 PM 39.4667 -106.9483 246° West 426 490 39,000  Level Denver Center
Sat 06:19:30 PM 39.4300 -107.0831 251° West 417 480 39,000  Level Denver Center
Sat 06:20:31 PM 39.3958 -107.1950 248° West 417 480 39,000  Level Denver Center
Sat 06:21:33 PM 39.3406 -107.3750 248° West 421 484 39,000  Level Denver Center
Sat 06:22:34 PM 39.2917 -107.5331 248° West 422 486 39,000  Level Denver Center
Sat 06:23:36 PM 39.2503 -107.6661 248° West 420 483 39,000  Level Denver Center
Sat 06:24:37 PM 39.2092 -107.7994 248° West 418 481 39,000  Level Denver Center
Sat 06:25:39 PM 39.1603 -107.9569 248° West 421 484 39,000  Level Denver Center
Sat 06:26:40 PM 39.1189 -108.0892 248° West 417 480 39,000  Level Denver Center
Sat 06:27:42 PM 39.0767 -108.2219 248° West 417 480 39,000  Level Denver Center
Sat 06:28:43 PM 39.0256 -108.3825 248° West 440 506 39,000  Level Denver Center
Sat 06:29:45 PM 38.9825 -108.5181 248° West 431 496 39,000  Level Denver Center
Sat 06:30:46 PM 38.9336 -108.6722 248° West 416 479 39,000  Level Denver Center
Sat 06:31:48 PM 38.8911 -108.8044 248° West 417 480 39,000  Level Denver Center
Sat 06:32:49 PM 38.8483 -108.9361 247° West 417 480 39,000  Level Denver Center
Sat 06:34:20 PM 38.7769 -109.1556 247° West 417 480 39,000  Level Salt Lake Center
Sat 06:35:04 PM 38.7483 -109.2439 247° West 418 481 39,000  Level Denver Center
Sat 06:36:06 PM 38.6986 -109.3978 248° West 418 481 39,000  Level Denver Center
Sat 06:37:07 PM 38.6561 -109.5292 248° West 418 481 39,000  Level Denver Center
Sat 06:38:09 PM 38.6047 -109.6775 246° West 409 471 39,000  Level Denver Center
Sat 06:39:10 PM 38.5606 -109.8069 246° West 413 475 39,000  Level Denver Center
Sat 06:40:11 PM 38.5167 -109.9358 247° West 412 474 39,000  Level Denver Center
Sat 06:41:13 PM 38.4522 -110.0786 240° Southwest 415 478 39,000 -49 Level Denver Center
Sat 06:42:14 PM 38.3975 -110.2017 240° Southwest 416 479 38,900 -488 Descending Denver Center
Sat 06:43:16 PM 38.3344 -110.3456 241° Southwest 416 479 38,000 -439 Descending Denver Center
Sat 06:44:17 PM 38.2800 -110.4683 241° Southwest 414 476 38,000  Level Denver Center
Sat 06:45:18 PM 38.2242 -110.5914 240° Southwest 416 479 38,000 -390 Level Denver Center
Sat 06:46:20 PM 38.1603 -110.7358 241° Southwest 421 484 37,200 -829 Descending Denver Center
Sat 06:47:21 PM 38.1072 -110.8619 242° Southwest 422 486 36,300 -590 Descending Denver Center
Sat 06:48:22 PM 38.0586 -111.0178 248° West 424 488 36,000 -585 Descending Denver Center
Sat 06:49:24 PM 38.0122 -111.1569 247° West 427 491 35,100 -889 Descending Denver Center
Sat 06:50:37 PM 37.9558 -111.3283 247° West 436 502 34,000 -934 Descending Salt Lake Center
Sat 06:51:26 PM 37.9161 -111.4408 246° West 440 506 33,200 -919 Descending Denver Center
Sat 06:52:28 PM 37.8683 -111.5842 247° West 441 507 32,300 -940 Descending Denver Center
Sat 06:53:40 PM 37.8100 -111.7589 247° West 447 514 31,100 -992 Descending Salt Lake Center
Sat 06:54:41 PM 37.7617 -111.9064 248° West 453 521 30,100 -934 Descending Salt Lake Center
Sat 06:55:42 PM 37.7131 -112.0550 248° West 457 526 29,200 -934 Descending Salt Lake Center
Sat 06:56:43 PM 37.6622 -112.2056 247° West 465 535 28,200 -590 Descending Salt Lake Center
Sat 06:57:44 PM 37.6125 -112.3575 248° West 467 537 28,000 -98 Descending Salt Lake Center
Sat 06:58:45 PM 37.5586 -112.5064 245° Southwest 466 536 28,000  Level Salt Lake Center
Sat 06:59:46 PM 37.4706 -112.6281 228° Southwest 466 536 28,000  Level Salt Lake Center
Sat 07:00:47 PM 37.3892 -112.7569 232° Southwest 462 532 28,000 -197 Level Salt Lake Center
Sat 07:01:48 PM 37.3111 -112.8889 233° Southwest 464 534 27,600 -787 Descending Salt Lake Center
Sat 07:02:49 PM 37.2372 -113.0106 233° Southwest 445 512 26,400 -1,082 Descending Salt Lake Center
Sat 07:03:50 PM 37.1661 -113.1272 233° Southwest 426 490 25,400 -984 Descending Salt Lake Center
Sat 07:04:51 PM 37.0967 -113.2433 233° Southwest 419 482 24,400 -689 Descending Salt Lake Center
Sat 07:05:52 PM 37.0208 -113.3825 236° Southwest 407 468 24,000 -197 Descending Salt Lake Center
Sat 07:06:53 PM 36.9483 -113.4894 230° Southwest 403 464 24,000  Level Salt Lake Center
Sat 07:07:54 PM 36.8642 -113.5833 222° Southwest 403 464 24,000  Level Salt Lake Center
Sat 07:08:55 PM 36.7831 -113.6786 223° Southwest 403 464 24,000 -393 Level Salt Lake Center
Sat 07:09:56 PM 36.7281 -113.7989 240° Southwest 399 459 23,200 -989 Descending Salt Lake Center
Sat 07:10:26 PM 36.7064 -113.8475 241° Southwest 400 460 22,500 -1,846 Descending Los Angeles Center
Sat 07:11:27 PM 36.6497 -113.9625 238° Southwest 392 451 20,400 -2,164 Descending Los Angeles Center
Sat 07:12:28 PM 36.5850 -114.0964 239° Southwest 380 437 18,100 -2,176 Descending Los Angeles Center
Sat 07:13:09 PM 36.5461 -114.1733 238° Southwest 375 432 16,700 -1,944 Descending Los Angeles Center
Sat 07:13:39 PM 36.5222 -114.2217 238° Southwest 369 425 15,800 -1,683 Descending Los Angeles Center
Sat 07:14:31 PM 36.4836 -114.2967 237° Southwest 363 418 14,400 -1,699 Descending Los Angeles Center
Sat 07:15:32 PM 36.4342 -114.4000 239° Southwest 350 403 12,600 -1,180 Descending Los Angeles Center
Sat 07:16:33 PM 36.3597 -114.4942 226° Southwest 327 376 12,000 -488 Descending Los Angeles Center
Sat 07:17:35 PM 36.2867 -114.4919 179° South 267 307 11,600 -780 Descending Los Angeles Center
Sat 07:18:36 PM 36.2164 -114.4825 174° South 255 293 10,400 -1,180 Descending Los Angeles Center
Sat 07:19:37 PM 36.1461 -114.4733 174° South 254 292 9,200 -1,171 Descending Los Angeles Center
Sat 07:20:39 PM 36.0783 -114.4797 184° South 254 292 8,000 -537 Descending Los Angeles Center
Sat 07:21:40 PM 36.0708 -114.5592 263° West 241 277 8,100  Climbing Los Angeles Center
Sat 07:22:41 PM 36.0719 -114.6431 271° West 244 281 8,000 -50 Descending Los Angeles Center
Sat 07:23:41 PM 36.0719 -114.7356 270° West 240 276 8,000 -347 Level Los Angeles Center
Sat 07:24:42 PM 36.0731 -114.8178 271° West 241 277 7,300 -934 Descending Los Angeles Center
Sat 07:25:43 PM 36.0742 -114.8919 271° West 219 252 6,100 -1,230 Descending Los Angeles Center
Sat 07:26:44 PM 36.0736 -114.9589 269° West 197 227 4,800 -1,180 Descending Los Angeles Center
Sat 07:27:45 PM 36.0731 -115.0256 269° West 188 216 3,700 -984 Descending Los Angeles Center
Sat 07:28:46 PM 36.0731 -115.0842 270° West 159 183 2,800 -745 Descending Los Angeles Center
Sat 07:30:02 PM 36.0717 -115.1458 268° West 160 184 2,000 -632 Descending Los Angeles Center

Login

Don't have an account? Register now (free) for customized features, flight alerts, and more!